Marion, OH

9:39 AM EST on January 31, 2015 (GMT -0500)
Neidhart Rd. South of Southern Estates | Change Station
CLOSE
Current Station
Personal Weather Station
Location: Marion, OH
Elevation: 968 ft
Nearby Weather Stations
Active Advisory: Winter Storm Watch

Elev 968 ft 40.53 °N, 83.09 °W | Updated 7 minutes ago

Clear
Clear
21.6 °F
Feels Like 16 °F
N
3.8
Wind Variable Wind from SSW

Today
High -- | Low -- °F
--% Chance of Precip.
Yesterday
High -- | Low -- °F
Precip. -- in
7:43 AM 5:49 PM
Waxing Gibbous, 90% visible
Pressure 30.41 in
Visibility 7.0 miles
Clouds Overcast 10000 ft
Windchill 16 °F
Dew Point 13 °F
Humidity 69%
Rainfall 0.00 in
Snow Depth Not available.
UV 0 out of 12
Pollen .10 out of 12
Air Quality Not available.
Flu Activity Not available.
METAR KMNN 311353Z AUTO 20006KT 7SM OVC100 M11/M13 A3034 RMK AO2 SLP296 T11061128 TSNO

More Conditions Fewer Conditions

Pressure 30.41 in
Visibility 7.0 miles
Clouds Overcast 10000 ft
Windchill 16 °F
Dew Point 13 °F
Humidity 69%
Rainfall 0.00 in
Snow Depth Not available.
UV 0 out of 12
Pollen .10 out of 12
Air Quality Not available.
Flu Activity Not available.
METAR KMNN 311353Z AUTO 20006KT 7SM OVC100 M11/M13 A3034 RMK AO2 SLP296 T11061128 TSNO

More Conditions Fewer Conditions

10-Day Weather Forecast

Almanac

Astronomy

Jan. 31, 2015 Rise Set
Actual Time
Civil Twilight
Nautical Twilight
Astronomical Twilight
Moon
Length of Visible Light
Length of Day
Tomorrow will be .
, % of the Moon is Illuminated

Today's Extremes

State Highs State Lows

Community

WunderPhotos

Upload Photos

1,792,060 photos uploaded!

WunderBlogs® & News

Nearby

Air Quality

  Air Quality AQ Index Pollutant
Not available.

Snow Depth

Station Depth Elevation

Earthquake Activity

City Distance Mag. Time & Date
Minimum magnitude displayed is 2.5.

Coastal Water Temperatures

Place Temperature

Nearby Weather Stations